createdAt,value
2019-04-14T00:02:09.559Z,63.90
2019-04-14T00:04:40.224Z,63.67
2019-04-14T00:07:12.228Z,68.37
2019-04-14T00:09:43.171Z,60.53
2019-04-14T00:12:14.365Z,68.77
2019-04-14T00:14:44.687Z,68.03
2019-04-14T00:17:13.682Z,66.33
2019-04-14T00:19:45.659Z,65.30
2019-04-14T00:22:16.987Z,65.17
2019-04-14T00:24:46.632Z,63.23
2019-04-14T00:27:21.558Z,61.13
2019-04-14T00:29:54.509Z,63.47
2019-04-14T00:32:25.041Z,61.63
2019-04-14T00:35:10.401Z,62.93
2019-04-14T00:37:43.101Z,60.37
2019-04-14T00:40:21.601Z,62.43
2019-04-14T00:43:04.930Z,63.97
2019-04-14T00:45:44.429Z,58.40
2019-04-14T00:48:11.806Z,55.37
2019-04-14T00:50:38.677Z,61.70
2019-04-14T00:53:07.821Z,60.20
2019-04-14T00:55:42.217Z,61.07
2019-04-14T00:58:15.482Z,60.00
2019-04-14T01:00:45.508Z,58.57
2019-04-14T01:03:19.946Z,58.17
2019-04-14T01:05:50.565Z,59.70
2019-04-14T01:08:18.965Z,60.43
2019-04-14T01:10:50.344Z,63.03
2019-04-14T01:13:20.020Z,67.07
2019-04-14T01:16:13.915Z,63.47
2019-04-14T01:18:45.102Z,69.03
2019-04-14T01:21:15.354Z,71.03
2019-04-14T01:23:46.391Z,60.47
2019-04-14T01:26:16.433Z,68.33
2019-04-14T01:28:46.477Z,66.80
2019-04-14T01:31:20.666Z,62.43
2019-04-14T01:33:53.361Z,69.23
2019-04-14T01:36:23.374Z,63.33
2019-04-14T01:38:55.748Z,66.67
2019-04-14T01:41:25.956Z,65.07
2019-04-14T01:43:56.009Z,67.40
2019-04-14T01:46:29.956Z,69.07
2019-04-14T01:48:59.084Z,67.50
2019-04-14T01:51:35.961Z,69.23
2019-04-14T01:54:25.723Z,68.63
2019-04-14T01:57:08.860Z,65.93
2019-04-14T01:59:41.280Z,71.23
2019-04-14T02:02:11.924Z,69.07
2019-04-14T02:04:44.206Z,73.03
2019-04-14T02:07:12.713Z,73.57
2019-04-14T02:09:42.273Z,72.40
2019-04-14T02:12:12.669Z,71.63
2019-04-14T02:14:42.951Z,71.17
2019-04-14T02:17:13.130Z,75.37
2019-04-14T02:19:45.887Z,74.20
2019-04-14T02:22:15.962Z,76.07
2019-04-14T02:24:46.554Z,73.83
2019-04-14T02:27:16.677Z,77.90
2019-04-14T02:29:47.401Z,75.77
2019-04-14T02:35:22.716Z,77.57
2019-04-14T02:37:58.427Z,70.77
2019-04-14T02:40:29.218Z,76.00
2019-04-14T02:42:54.755Z,73.20
2019-04-14T02:45:35.549Z,81.40
2019-04-14T02:48:18.342Z,74.83
2019-04-14T02:50:38.601Z,82.00
2019-04-14T02:53:39.329Z,79.43
2019-04-14T02:55:49.122Z,77.53
2019-04-14T02:58:30.558Z,78.53
2019-04-14T03:01:02.309Z,85.53
2019-04-14T03:06:01.858Z,72.53
2019-04-14T03:08:25.239Z,80.73
2019-04-14T03:10:53.683Z,84.13
2019-04-14T03:13:29.250Z,88.20
2019-04-14T03:15:58.809Z,83.27
2019-04-14T03:23:57.897Z,79.87
2019-04-14T03:26:33.958Z,77.30
2019-04-14T03:29:12.400Z,75.30
2019-04-14T03:34:34.596Z,78.50
2019-04-14T03:39:23.533Z,71.83
2019-04-14T03:41:52.707Z,74.70
2019-04-14T03:47:02.928Z,75.27
2019-04-14T03:54:20.664Z,69.93
2019-04-14T03:56:48.759Z,74.27
2019-04-14T03:59:21.663Z,74.60
2019-04-14T04:01:52.373Z,74.80
2019-04-14T04:04:22.735Z,72.53
2019-04-14T04:07:01.888Z,69.13
2019-04-14T04:09:32.519Z,69.47
2019-04-14T04:12:10.033Z,66.83
2019-04-14T04:14:38.417Z,71.73
2019-04-14T04:17:12.248Z,71.50
2019-04-14T04:19:42.853Z,68.10
2019-04-14T04:22:30.392Z,69.53
2019-04-14T04:25:19.023Z,69.27
2019-04-14T04:27:49.057Z,68.63
2019-04-14T04:30:38.313Z,73.67
2019-04-14T04:33:15.476Z,71.17
2019-04-14T04:35:46.057Z,73.23
2019-04-14T04:38:22.393Z,66.77
2019-04-14T04:40:55.768Z,70.57
2019-04-14T04:43:25.526Z,63.37
2019-04-14T04:45:56.070Z,66.13
2019-04-14T04:48:24.705Z,70.77
2019-04-14T04:50:56.416Z,64.50
2019-04-14T04:53:26.571Z,66.93
2019-04-14T04:55:57.333Z,66.10
2019-04-14T04:58:28.429Z,61.93
2019-04-14T05:01:01.505Z,57.93
2019-04-14T05:03:29.972Z,59.17
2019-04-14T05:06:09.225Z,62.10
2019-04-14T05:08:39.312Z,59.17
2019-04-14T05:11:14.497Z,54.93
2019-04-14T05:13:44.602Z,59.63
2019-04-14T05:16:13.047Z,54.37
2019-04-14T05:18:41.901Z,60.50
2019-04-14T05:21:10.481Z,52.20
2019-04-14T05:23:39.453Z,51.20
2019-04-14T05:26:11.854Z,54.73
2019-04-14T05:28:40.217Z,48.83
2019-04-14T05:31:12.158Z,51.83
2019-04-14T05:33:42.498Z,52.87
2019-04-14T05:36:12.748Z,50.80
2019-04-14T05:38:45.033Z,53.67
2019-04-14T05:41:15.925Z,43.83
2019-04-14T05:43:54.947Z,46.93
2019-04-14T05:46:33.912Z,47.23
2019-04-14T05:49:02.909Z,45.60
2019-04-14T05:51:35.006Z,46.87
2019-04-14T05:54:07.798Z,46.67
2019-04-14T05:56:40.633Z,44.57
2019-04-14T05:59:13.501Z,49.73
2019-04-14T06:01:51.108Z,42.13
2019-04-14T06:04:22.141Z,40.80
2019-04-14T06:06:55.201Z,38.57
2019-04-14T06:09:23.600Z,41.57
2019-04-14T06:11:57.793Z,42.27
2019-04-14T06:14:26.188Z,39.40
2019-04-14T06:16:55.392Z,40.17
2019-04-14T06:19:36.527Z,41.83
2019-04-14T06:21:59.663Z,37.90
2019-04-14T06:24:33.756Z,39.23
2019-04-14T06:27:02.147Z,40.10
2019-04-14T06:29:38.111Z,40.87
2019-04-14T06:32:23.805Z,39.73
2019-04-14T06:35:10.493Z,40.97
2019-04-14T06:37:42.057Z,43.93
2019-04-14T06:40:13.467Z,39.53
2019-04-14T06:42:41.849Z,42.87
2019-04-14T06:45:13.858Z,42.47
2019-04-14T06:47:42.304Z,38.33
2019-04-14T06:50:12.448Z,37.83
2019-04-14T06:52:50.037Z,38.97
2019-04-14T06:55:18.429Z,38.20
2019-04-14T06:57:46.827Z,37.17
2019-04-14T07:00:17.516Z,35.23
2019-04-14T07:02:48.881Z,32.70
2019-04-14T07:05:17.266Z,39.33
2019-04-14T07:07:56.463Z,35.77
2019-04-14T07:10:15.783Z,33.43
2019-04-14T07:12:49.949Z,31.93
2019-04-14T07:15:23.369Z,31.93
2019-04-14T07:17:51.768Z,30.13
2019-04-14T07:20:23.108Z,29.13
2019-04-14T07:22:51.501Z,29.43
2019-04-14T07:25:21.539Z,28.83
2019-04-14T07:27:49.930Z,25.53
2019-04-14T07:30:27.277Z,25.70
2019-04-14T07:33:14.042Z,25.20
2019-04-14T07:36:00.131Z,26.73
2019-04-14T07:38:44.833Z,23.97
2019-04-14T07:41:14.864Z,23.67
2019-04-14T07:43:54.006Z,22.37
2019-04-14T07:46:32.245Z,24.60
2019-04-14T07:49:02.781Z,22.77
2019-04-14T07:51:35.734Z,25.47
2019-04-14T07:54:06.521Z,20.93
2019-04-14T07:56:51.292Z,25.67
2019-04-14T07:59:30.454Z,20.13
2019-04-14T08:02:03.460Z,21.50
2019-04-14T08:04:33.761Z,21.93
2019-04-14T08:07:02.388Z,22.23
2019-04-14T08:09:31.024Z,19.97
2019-04-14T08:11:59.426Z,20.20
2019-04-14T08:14:27.808Z,22.73
2019-04-14T08:16:58.950Z,21.40
2019-04-14T08:19:27.345Z,24.60
2019-04-14T08:21:55.977Z,18.47
2019-04-14T08:24:24.376Z,21.80
2019-04-14T08:26:55.976Z,20.30
2019-04-14T08:29:24.389Z,18.60
2019-04-14T08:31:52.821Z,18.37
2019-04-14T08:34:21.216Z,19.53
2019-04-14T08:36:52.481Z,18.03
2019-04-14T08:39:23.646Z,19.10
2019-04-14T08:42:07.238Z,19.60
2019-04-14T08:44:39.426Z,21.53
2019-04-14T08:47:11.622Z,18.80
2019-04-14T08:49:47.561Z,17.60
2019-04-14T08:52:17.592Z,20.20
2019-04-14T08:55:05.628Z,19.40
2019-04-14T08:57:45.940Z,18.73
2019-04-14T09:00:29.659Z,20.33
2019-04-14T09:03:16.374Z,18.63
2019-04-14T09:06:01.723Z,19.47
2019-04-14T09:08:38.985Z,18.23
2019-04-14T09:11:11.721Z,16.53
2019-04-14T09:13:45.085Z,20.03
2019-04-14T09:16:16.433Z,17.40
2019-04-14T09:18:47.804Z,19.47
2019-04-14T09:21:19.057Z,16.37
2019-04-14T09:23:47.465Z,16.77
2019-04-14T09:26:26.533Z,18.57
2019-04-14T09:28:56.193Z,15.67
2019-04-14T09:31:24.561Z,17.73
2019-04-14T09:33:55.677Z,18.37
2019-04-14T09:36:24.083Z,16.43
2019-04-14T09:38:55.377Z,17.00
2019-04-14T09:41:26.445Z,16.43
2019-04-14T09:43:55.772Z,17.13
2019-04-14T09:46:24.182Z,16.43
2019-04-14T09:48:55.735Z,16.50
2019-04-14T09:51:27.167Z,15.13
2019-04-14T09:53:55.573Z,16.60
2019-04-14T09:56:25.604Z,18.67
2019-04-14T09:58:56.795Z,17.50
2019-04-14T10:01:29.609Z,16.52
2019-04-14T10:03:58.033Z,15.27
2019-04-14T10:06:26.427Z,15.25
2019-04-14T10:08:59.197Z,14.33
2019-04-14T10:11:27.683Z,15.43
2019-04-14T10:13:56.082Z,15.45
2019-04-14T10:16:30.673Z,15.65
2019-04-14T10:19:02.144Z,16.50
2019-04-14T10:21:30.708Z,18.63
2019-04-14T10:23:59.121Z,15.75
2019-04-14T10:26:29.176Z,16.05
2019-04-14T10:29:00.546Z,15.43
2019-04-14T10:31:30.833Z,15.60
2019-04-14T10:33:59.241Z,15.13
2019-04-14T10:36:30.554Z,18.13
2019-04-14T10:38:59.029Z,13.60
2019-04-14T10:41:30.465Z,16.03
2019-04-14T10:44:01.529Z,13.40
2019-04-14T10:46:30.156Z,14.40
2019-04-14T10:49:00.523Z,16.02
2019-04-14T10:51:30.336Z,14.43
2019-04-14T10:53:59.308Z,13.80
2019-04-14T10:56:27.705Z,15.72
2019-04-14T10:58:56.118Z,13.60
2019-04-14T11:01:26.154Z,14.00
2019-04-14T11:03:54.604Z,13.38
2019-04-14T11:06:38.907Z,14.58
2019-04-14T11:09:09.596Z,14.80
2019-04-14T11:11:41.378Z,13.38
2019-04-14T11:14:09.772Z,14.20
2019-04-14T11:16:38.184Z,13.72
2019-04-14T11:19:09.716Z,13.93
2019-04-14T11:21:42.852Z,15.83
2019-04-14T11:24:08.231Z,14.90
2019-04-14T11:26:36.653Z,15.17
2019-04-14T11:29:05.825Z,13.30
2019-04-14T11:31:47.885Z,15.60
2019-04-14T11:34:26.905Z,13.68
2019-04-14T11:36:56.953Z,12.63
2019-04-14T11:39:26.985Z,13.98
2019-04-14T11:41:58.381Z,13.18
2019-04-14T11:44:26.880Z,13.85
2019-04-14T11:46:58.000Z,13.45
2019-04-14T11:49:26.642Z,16.10
2019-04-14T11:51:55.891Z,15.05
2019-04-14T11:54:27.653Z,13.10
2019-04-14T11:57:02.509Z,13.60
2019-04-14T11:59:38.282Z,15.50
2019-04-14T12:02:10.892Z,14.10
2019-04-14T12:04:46.660Z,13.00
2019-04-14T12:07:16.699Z,12.97
2019-04-14T12:09:46.737Z,12.10
2019-04-14T12:12:20.664Z,12.35
2019-04-14T12:14:50.317Z,12.30
2019-04-14T12:17:21.566Z,15.73
2019-04-14T12:19:50.209Z,13.23
2019-04-14T12:22:21.367Z,14.87
2019-04-14T12:24:51.409Z,14.37
2019-04-14T12:27:24.169Z,15.27
2019-04-14T12:29:56.579Z,12.87
2019-04-14T12:32:27.005Z,12.30
2019-04-14T12:34:56.850Z,13.17
2019-04-14T12:37:26.251Z,14.93
2019-04-14T12:39:54.652Z,16.07
2019-04-14T12:42:32.199Z,15.37
2019-04-14T12:45:02.266Z,13.47
2019-04-14T12:47:39.944Z,13.20
2019-04-14T12:50:13.220Z,15.60
2019-04-14T12:52:44.643Z,14.37
2019-04-14T12:55:15.832Z,17.77
2019-04-14T12:57:48.842Z,12.90
2019-04-14T13:00:22.608Z,18.70
2019-04-14T13:02:56.021Z,13.83
2019-04-14T13:05:24.437Z,11.97
2019-04-14T13:07:55.280Z,16.10
2019-04-14T13:10:23.673Z,13.77
2019-04-14T13:12:55.004Z,12.17
2019-04-14T13:15:23.628Z,13.83
2019-04-14T13:18:01.877Z,15.10
2019-04-14T13:20:33.305Z,14.03
2019-04-14T13:23:04.797Z,13.83
2019-04-14T13:25:34.837Z,14.27
2019-04-14T13:28:06.071Z,14.73
2019-04-14T13:30:39.103Z,14.13
2019-04-14T13:33:10.298Z,14.57
2019-04-14T13:35:38.700Z,17.93
2019-04-14T13:38:13.562Z,13.73
2019-04-14T13:40:46.313Z,12.50
2019-04-14T13:43:20.445Z,14.37
2019-04-14T13:45:51.322Z,14.17
2019-04-14T13:48:22.644Z,15.93
2019-04-14T13:50:51.150Z,13.43
2019-04-14T13:53:22.712Z,13.70
2019-04-14T13:55:51.351Z,15.47
2019-04-14T13:58:21.301Z,14.17
2019-04-14T14:00:49.682Z,13.23
2019-04-14T14:03:18.093Z,14.07
2019-04-14T14:05:49.426Z,17.47
2019-04-14T14:08:21.035Z,15.27
2019-04-14T14:10:57.071Z,16.93
2019-04-14T14:13:35.861Z,13.90
2019-04-14T14:16:16.320Z,12.03
2019-04-14T14:18:47.444Z,13.53
2019-04-14T14:21:20.219Z,13.33
2019-04-14T14:24:06.637Z,16.00
2019-04-14T14:26:53.268Z,14.20
2019-04-14T14:29:23.356Z,12.50
2019-04-14T14:31:52.605Z,15.83
2019-04-14T14:34:21.049Z,14.47
2019-04-14T14:36:50.733Z,12.33
2019-04-14T14:39:20.741Z,13.03
2019-04-14T14:41:52.257Z,12.27
2019-04-14T14:44:22.285Z,10.03
2019-04-14T14:46:58.548Z,12.27
2019-04-14T14:49:51.172Z,12.83
2019-04-14T14:52:22.362Z,14.10
2019-04-14T14:54:56.521Z,11.20
2019-04-14T14:57:24.985Z,10.83
2019-04-14T14:59:56.281Z,9.80
2019-04-14T15:02:27.633Z,12.43
2019-04-14T15:04:56.021Z,12.03
2019-04-14T15:07:27.119Z,10.33
2019-04-14T15:09:55.526Z,10.07
2019-04-14T15:12:26.849Z,9.03
2019-04-14T15:14:55.257Z,9.40
2019-04-14T15:17:27.078Z,8.73
2019-04-14T15:20:01.222Z,10.33
2019-04-14T15:22:29.625Z,9.33
2019-04-14T15:24:58.029Z,8.47
2019-04-14T15:27:35.469Z,10.17
2019-04-14T15:30:08.133Z,10.20
2019-04-14T15:32:39.248Z,8.53
2019-04-14T15:35:08.413Z,11.00
2019-04-14T15:37:37.041Z,10.70
2019-04-14T15:40:08.097Z,8.53
2019-04-14T15:42:38.129Z,8.17
2019-04-14T15:45:08.313Z,9.70
2019-04-14T15:47:38.357Z,9.20
2019-04-14T15:50:09.550Z,8.63
2019-04-14T15:52:46.865Z,9.50
2019-04-14T15:55:18.681Z,10.33
2019-04-14T15:57:52.576Z,8.83
2019-04-14T16:00:34.660Z,8.40
2019-04-14T16:03:21.383Z,11.83
2019-04-14T16:05:51.401Z,8.40
2019-04-14T16:08:24.161Z,9.53
2019-04-14T16:10:54.185Z,9.77
2019-04-14T16:13:24.238Z,11.37
2019-04-14T16:16:02.773Z,11.53
2019-04-14T16:18:38.587Z,8.83
2019-04-14T16:21:13.265Z,10.20
2019-04-14T16:23:50.403Z,10.43
2019-04-14T16:26:22.417Z,9.93
2019-04-14T16:28:55.392Z,10.80
2019-04-14T16:31:44.690Z,10.93
2019-04-14T16:34:17.540Z,9.90
2019-04-14T16:36:47.565Z,10.10
2019-04-14T16:39:15.951Z,11.10
2019-04-14T16:41:44.357Z,9.90
2019-04-14T16:44:13.402Z,9.80
2019-04-14T16:46:44.734Z,11.00
2019-04-14T16:49:13.367Z,12.97
2019-04-14T16:51:44.174Z,10.13
2019-04-14T16:54:20.254Z,8.17
2019-04-14T16:56:59.354Z,12.00
2019-04-14T16:59:30.705Z,11.27
2019-04-14T17:02:10.673Z,9.83
2019-04-14T17:04:32.314Z,8.43
2019-04-14T17:07:03.630Z,9.37
2019-04-14T17:09:34.505Z,8.87
2019-04-14T17:12:05.780Z,10.53
2019-04-14T17:14:52.024Z,11.63
2019-04-14T17:17:34.538Z,10.60
2019-04-14T17:20:21.674Z,9.17
2019-04-14T17:23:15.322Z,7.73
2019-04-14T17:25:42.310Z,10.90
2019-04-14T17:28:12.335Z,9.43
2019-04-14T17:30:48.474Z,10.40
2019-04-14T17:33:24.194Z,12.30
2019-04-14T17:35:54.225Z,11.00
2019-04-14T17:38:27.254Z,10.13
2019-04-14T17:40:57.296Z,10.50
2019-04-14T17:43:46.360Z,7.90
2019-04-14T17:46:16.388Z,7.97
2019-04-14T17:48:46.418Z,9.27
2019-04-14T17:51:16.462Z,12.70
2019-04-14T17:53:46.716Z,9.73
2019-04-14T17:56:19.884Z,11.13
2019-04-14T17:58:49.913Z,8.83
2019-04-14T18:01:28.745Z,10.73
2019-04-14T18:03:58.757Z,9.63
2019-04-14T18:06:40.912Z,9.23
2019-04-14T18:09:29.426Z,9.47
2019-04-14T18:12:05.965Z,9.77
2019-04-14T18:14:41.969Z,9.63
2019-04-14T18:17:18.039Z,10.67
2019-04-14T18:19:48.065Z,8.63
2019-04-14T18:22:16.466Z,8.23
2019-04-14T18:24:46.489Z,8.63
2019-04-14T18:27:16.765Z,10.70
2019-04-14T18:29:47.051Z,9.40
2019-04-14T18:32:28.919Z,8.57
2019-04-14T18:35:01.887Z,9.73
2019-04-14T18:37:40.328Z,7.77
2019-04-14T18:40:13.773Z,10.60
2019-04-14T18:42:52.359Z,7.37
2019-04-14T18:45:29.680Z,8.83
2019-04-14T18:48:08.981Z,8.73
2019-04-14T18:50:39.049Z,8.87
2019-04-14T18:53:09.369Z,6.90
2019-04-14T18:55:42.281Z,8.50
2019-04-14T18:58:27.105Z,8.33
2019-04-14T19:01:02.561Z,7.73
2019-04-14T19:03:31.183Z,10.13
2019-04-14T19:06:01.205Z,8.80
2019-04-14T19:08:29.672Z,8.73
2019-04-14T19:11:15.385Z,8.87
2019-04-14T19:13:57.553Z,8.37
2019-04-14T19:16:45.724Z,8.67
2019-04-14T19:19:21.362Z,10.37
2019-04-14T19:21:49.976Z,7.23
2019-04-14T19:24:21.628Z,7.47
2019-04-14T19:26:51.298Z,8.93
2019-04-14T19:29:19.709Z,7.30
2019-04-14T19:31:54.075Z,7.40
2019-04-14T19:34:23.591Z,7.67
2019-04-14T19:36:51.965Z,6.67
2019-04-14T19:39:20.340Z,6.57
2019-04-14T19:41:50.441Z,5.43
2019-04-14T19:44:28.042Z,5.73
2019-04-14T19:46:58.057Z,5.67
2019-04-14T19:49:26.666Z,5.27
2019-04-14T19:51:58.097Z,5.30
2019-04-14T19:54:30.746Z,5.53
2019-04-14T19:57:01.797Z,4.87
2019-04-14T19:59:32.993Z,4.57
2019-04-14T20:02:01.394Z,4.90
2019-04-14T20:04:32.688Z,4.30
2019-04-14T20:07:04.209Z,4.20
2019-04-14T20:09:32.597Z,5.07
2019-04-14T20:12:03.454Z,4.70
2019-04-14T20:14:35.210Z,4.90
2019-04-14T20:17:06.129Z,5.03
2019-04-14T20:19:51.266Z,5.50
2019-04-14T20:22:24.794Z,5.27
2019-04-14T20:25:02.969Z,5.50
2019-04-14T20:27:33.027Z,5.70
2019-04-14T20:30:11.133Z,4.80
2019-04-14T20:32:47.300Z,5.03
2019-04-14T20:35:17.380Z,4.93
2019-04-14T20:37:53.719Z,5.23
2019-04-14T20:40:23.910Z,5.03
2019-04-14T20:42:55.058Z,4.70
2019-04-14T20:45:23.445Z,4.93
2019-04-14T20:47:57.781Z,4.50
2019-04-14T20:50:27.065Z,4.23
2019-04-14T20:52:57.153Z,4.70
2019-04-14T20:55:28.754Z,4.57
2019-04-14T20:57:58.867Z,4.77
2019-04-14T21:00:27.333Z,4.83
2019-04-14T21:03:14.166Z,4.43
2019-04-14T21:06:02.877Z,4.43
2019-04-14T21:08:53.782Z,4.50
2019-04-14T21:11:42.080Z,4.50
2019-04-14T21:14:14.727Z,5.10
2019-04-14T21:16:47.528Z,5.00
2019-04-14T21:19:17.612Z,6.20
2019-04-14T21:21:51.221Z,4.70
2019-04-14T21:24:21.247Z,5.83
2019-04-14T21:26:51.273Z,6.17
2019-04-14T21:29:27.372Z,5.13
2019-04-14T21:32:06.468Z,7.80
2019-04-14T21:34:52.673Z,5.63
2019-04-14T21:37:25.741Z,5.80
2019-04-14T21:39:58.714Z,4.50
2019-04-14T21:42:32.842Z,6.10
2019-04-14T21:45:06.411Z,6.60
2019-04-14T21:47:35.031Z,7.93
2019-04-14T21:50:05.066Z,7.37
2019-04-14T21:52:35.093Z,5.07
2019-04-14T21:55:07.621Z,5.83
2019-04-14T21:57:46.235Z,8.50
2019-04-14T22:00:35.961Z,6.70
2019-04-14T22:03:27.181Z,8.20
2019-04-14T22:06:03.105Z,5.60
2019-04-14T22:08:33.406Z,9.43
2019-04-14T22:11:09.898Z,11.60
2019-04-14T22:13:41.014Z,7.03
2019-04-14T22:16:09.397Z,9.33
2019-04-14T22:18:37.792Z,8.73
2019-04-14T22:21:06.166Z,7.70
2019-04-14T22:23:39.115Z,7.77
2019-04-14T22:26:08.541Z,8.67
2019-04-14T22:28:36.971Z,9.87
2019-04-14T22:31:09.649Z,12.67
2019-04-14T22:33:47.093Z,9.20
2019-04-14T22:36:27.973Z,9.13
2019-04-14T22:38:56.410Z,7.40
2019-04-14T22:41:24.837Z,6.97
2019-04-14T22:43:55.750Z,8.53
2019-04-14T22:46:24.125Z,8.17
2019-04-14T22:48:52.512Z,9.23
2019-04-14T22:51:23.692Z,8.57
2019-04-14T22:53:54.809Z,8.17
2019-04-14T22:56:24.845Z,7.03
2019-04-14T22:58:58.781Z,7.27
2019-04-14T23:01:28.889Z,10.53
2019-04-14T23:04:17.903Z,7.13
2019-04-14T23:07:07.162Z,7.63
2019-04-14T23:09:59.939Z,8.53
2019-04-14T23:12:45.176Z,6.87
2019-04-14T23:15:16.037Z,7.80
2019-04-14T23:17:55.013Z,10.67
2019-04-14T23:20:25.045Z,8.57
2019-04-14T23:23:00.222Z,6.57
2019-04-14T23:25:28.610Z,9.23
2019-04-14T23:28:02.726Z,9.03
2019-04-14T23:30:33.525Z,7.00
2019-04-14T23:33:03.532Z,8.93
2019-04-14T23:35:32.197Z,9.77
2019-04-14T23:38:02.226Z,8.47
2019-04-14T23:40:30.618Z,9.87
2019-04-14T23:43:01.754Z,9.77
2019-04-14T23:45:30.693Z,8.77
2019-04-14T23:47:59.145Z,10.60
2019-04-14T23:50:29.186Z,10.27
2019-04-14T23:52:57.577Z,10.13
2019-04-14T23:55:27.608Z,10.63
2019-04-14T23:57:55.989Z,12.40
